createdAt,value
2023-06-30T15:44:36.137Z,20.45
2023-06-30T15:47:03.024Z,8.23
2023-06-30T15:49:29.930Z,0.20
2023-06-30T15:51:56.476Z,0.40
2023-06-30T15:54:23.150Z,0.10
2023-06-30T15:56:49.669Z,2.90
2023-06-30T15:59:16.226Z,0.15
2023-06-30T16:01:42.751Z,0.30
2023-06-30T16:04:09.449Z,0.20
2023-06-30T16:06:36.130Z,0.50
2023-06-30T16:09:02.672Z,0.20
2023-06-30T16:11:29.239Z,2.13
2023-06-30T16:13:55.803Z,0.10
2023-06-30T16:16:22.500Z,0.25
2023-06-30T16:18:50.247Z,0.32
2023-06-30T16:21:17.050Z,0.15
2023-06-30T16:23:43.635Z,0.10
2023-06-30T16:26:10.177Z,0.20
2023-06-30T16:28:36.896Z,0.10
2023-06-30T16:31:03.580Z,0.20
2023-06-30T16:33:30.294Z,0.38
2023-06-30T16:35:56.907Z,0.20
2023-06-30T16:38:26.800Z,0.10
2023-06-30T16:40:53.375Z,0.13
2023-06-30T16:43:21.453Z,0.40
2023-06-30T16:45:48.434Z,0.32
2023-06-30T16:48:15.189Z,0.17
2023-06-30T16:50:41.788Z,0.52
2023-06-30T16:53:08.407Z,0.10
2023-06-30T16:55:34.948Z,0.20
2023-06-30T16:58:02.170Z,0.25
2023-06-30T17:00:28.698Z,0.13
2023-06-30T17:02:56.335Z,0.55
2023-06-30T17:05:41.367Z,0.20
2023-06-30T17:08:27.539Z,0.75
2023-06-30T17:11:14.387Z,0.30
2023-06-30T17:14:01.739Z,0.20
2023-06-30T17:16:48.629Z,0.10
2023-06-30T17:19:35.629Z,1.00
2023-06-30T17:22:22.758Z,0.28
2023-06-30T17:25:09.954Z,1.23
2023-06-30T17:27:57.344Z,0.30
2023-06-30T17:30:44.240Z,0.20
2023-06-30T17:33:31.142Z,1.02
2023-06-30T17:36:20.849Z,0.10
2023-06-30T17:39:07.774Z,0.63
2023-06-30T17:41:54.747Z,11.00
2023-06-30T17:44:44.204Z,22.30
2023-06-30T17:47:31.100Z,7.20
2023-06-30T17:50:18.332Z,0.25
2023-06-30T17:53:05.313Z,0.75
2023-06-30T17:55:52.638Z,1.02
2023-06-30T17:58:39.496Z,0.20
2023-06-30T18:01:29.391Z,0.30
2023-06-30T18:04:16.646Z,0.20
2023-06-30T18:07:11.481Z,0.20
2023-06-30T18:09:58.890Z,0.20
2023-06-30T18:12:45.861Z,0.20
2023-06-30T18:15:33.841Z,0.20
2023-06-30T18:18:20.768Z,0.20
2023-06-30T18:21:07.656Z,0.20
2023-06-30T18:23:54.512Z,0.20
2023-06-30T18:26:41.896Z,0.13
2023-06-30T18:29:28.865Z,0.20
2023-06-30T18:32:15.882Z,0.30
2023-06-30T18:35:03.607Z,0.20
2023-06-30T18:37:50.493Z,0.20
2023-06-30T18:40:37.957Z,0.20
2023-06-30T18:43:24.875Z,0.20
2023-06-30T18:46:11.820Z,0.20
2023-06-30T18:48:58.919Z,0.10
2023-06-30T18:51:46.178Z,0.20
2023-06-30T18:54:33.224Z,0.20
2023-06-30T18:57:20.562Z,0.25
2023-06-30T19:00:09.235Z,0.20
2023-06-30T19:02:56.209Z,0.40
2023-06-30T19:05:44.103Z,0.20
2023-06-30T19:08:31.181Z,0.20
2023-06-30T19:11:18.357Z,0.32
2023-06-30T19:14:05.260Z,0.20
2023-06-30T19:16:52.289Z,0.20
2023-06-30T19:19:39.142Z,0.20
2023-06-30T19:22:26.076Z,0.10
2023-06-30T19:25:12.944Z,0.20
2023-06-30T19:27:59.928Z,0.20
2023-06-30T19:30:47.353Z,0.30
2023-06-30T19:33:35.531Z,0.20
2023-06-30T19:36:22.456Z,0.20
2023-06-30T19:39:09.353Z,0.30
2023-06-30T19:41:58.642Z,0.22
2023-06-30T19:44:47.349Z,0.20
2023-06-30T19:47:35.358Z,0.20
2023-06-30T19:50:25.213Z,0.10
2023-06-30T19:53:13.559Z,0.20
2023-06-30T19:56:00.546Z,0.20
2023-06-30T19:58:47.548Z,0.20
2023-06-30T20:01:34.553Z,0.55
2023-06-30T20:04:24.623Z,0.20
2023-06-30T20:07:12.369Z,5.47
2023-06-30T20:09:59.298Z,0.30
2023-06-30T20:12:46.452Z,0.20
2023-06-30T20:15:33.411Z,0.20
2023-06-30T20:18:20.322Z,0.30
2023-06-30T20:21:07.278Z,0.40
